Main page
METAR-TAF:

METAR-TAF

Airports :

Jeddah, Saudi Arabia

King Abdulaziz International Airport

latitude: 21-42N, longitude: 039-11E, elevation: 15 m

Current weather observation

The report was made 34 minutes ago, at 22:00 UTC
Wind 7 kt from the North/Northwest
Temperature 26°C
Humidity 54%
Pressure 1009 hPa
Visibility 10 km or more
Scattered clouds at a height of 4000 ft

METAR: OEJN 272200Z 34007KT 9999 SCT040 26/16 Q1009 NOSIG

Time: 01:34 (22:34 UTC)

Forecast

The report was made 5 hours and 34 minutes ago, at 17:00 UTC
Forecast valid from 27 at 18 UTC to 28 at 24 UTC
Wind 10 kt from the North
Visibility 10 km or more
Scattered clouds at a height of 4000 ft
Probability 30% :
Temporary
from 27 at 18 UTC to 28 at 02 UTC
Wind 20 kt from variable directions
Visibility: 4000 m
Few clouds at a height of 3500 ft, Cumulonimbus.
Becoming
from 28 at 06 UTC to 28 at 08 UTC
Wind 15 kt from the Northwest

TAF: OEJN 271700Z 2718/2824 36010KT 9999 SCT040 PROB30 TEMPO 2718/2802 VRB20KT 4000 BLDU/TSRA FEW035CB BECMG 2806/2808 32015KT

Weather observations and forecasts of more than 4000 airports (METAR and TAF reports).

The available stations are represented by yellow and red dots on the map.

Hover mouse over dot to see the name of the station.

Then click to see weather observations and forecasts.

To change the map : click on the green buttons with a black cross to zoom in, on the green button with a dash to zoom out, or on the green arrows for adjacent maps.


METAR-TAF: